Time;durP1;ratioP1;P1;durP2;ratioP2;P2;SDS_P1;SDS_P2;PMS_P1;PMS_P2;Temp;Humidity;BMP_temperature;BMP_pressure;BME280_temperature;BME280_humidity;BME280_pressure;Samples;Min_cycle;Max_cycle;Signal;HPM_P1;HPM_P2
2021/07/24 00:00:46;;;;;;;;;;;;;;;23.96;48.24;101109.44;5034829;27;97878;-78
2021/07/24 00:03:12;;;;;;;;;;;;;;;23.95;48.13;101115.00;5019856;28;97630;-78
2021/07/24 00:05:39;;;;;;;;;;;;;;;23.96;48.06;101111.31;5016305;28;102133;-78
2021/07/24 00:08:06;;;;;;;;;;;;;;;23.97;47.86;101105.75;5019532;28;101234;-79
2021/07/24 00:10:33;;;;;;;;;;;;;;;24.02;47.67;101110.78;5029352;28;97628;-78
2021/07/24 00:12:59;;;;;;;;;;;;;;;24.10;47.14;101106.41;5027448;27;96941;-78
2021/07/24 00:15:25;;;;;;;;;;;;;;;24.18;46.66;101109.31;5035877;28;98908;-78
2021/07/24 00:17:52;;;;;;;;;;;;;;;24.13;46.84;101106.16;5024499;28;99019;-78
2021/07/24 00:20:18;;;;;;;;;;;;;;;24.02;47.81;101103.53;5034705;28;96798;-78
2021/07/24 00:22:44;;;;;;;;;;;;;;;23.95;48.08;101102.34;5035903;28;97300;-77
2021/07/24 00:25:12;;;;;;;;;;;;;;;23.80;48.71;101098.25;5032143;28;98340;-78
2021/07/24 00:27:38;;;;;;;;;;;;;;;24.04;48.32;101095.28;5022974;28;99435;-77
2021/07/24 00:30:05;;;;;;;;;;;;;;;23.90;48.50;101092.91;5019975;28;96927;-78
2021/07/24 00:32:32;;;;;;;;;;;;;;;23.97;48.21;101089.56;5027620;28;96964;-77
2021/07/24 00:34:58;;;;;;;;;;;;;;;23.97;47.86;101091.41;5031103;27;98361;-77
2021/07/24 00:37:24;;;;;;;;;;;;;;;23.75;48.34;101092.41;5028236;28;99219;-78
2021/07/24 00:39:51;;;;;;;;;;;;;;;23.70;48.28;101081.13;5033728;28;97894;-79
2021/07/24 00:42:21;;;;;;;;;;;;;;;23.71;48.29;101088.25;5021464;28;96815;-78
2021/07/24 00:44:47;;;;;;;;;;;;;;;23.55;48.31;101079.75;5022493;28;99979;-79
2021/07/24 00:47:16;;;;;;;;;;;;;;;23.50;48.27;101074.72;5027309;28;98052;-77
2021/07/24 00:49:43;;;;;;;;;;;;;;;23.44;48.87;101080.59;4978607;28;96894;-80
2021/07/24 00:52:10;;;;;;;;;;;;;;;23.37;49.72;101080.25;4982283;28;96947;-79
2021/07/24 00:54:38;;;;;;;;;;;;;;;23.33;50.24;101075.25;4990101;28;99492;-79
2021/07/24 00:57:05;;;;;;;;;;;;;;;23.34;50.34;101079.69;4979877;28;99146;-80
2021/07/24 00:59:32;;;;;;;;;;;;;;;23.40;50.31;101071.06;4984831;28;98814;-80
2021/07/24 01:01:59;;;;;;;;;;;;;;;23.39;50.11;101066.66;4994472;28;98015;-79
2021/07/24 01:04:25;;;;;;;;;;;;;;;23.36;50.33;101070.50;4982371;28;99119;-79
2021/07/24 01:06:51;;;;;;;;;;;;;;;23.32;50.44;101071.72;4986852;28;98148;-79
2021/07/24 01:09:18;;;;;;;;;;;;;;;23.25;50.30;101075.03;4989765;28;96807;-79
2021/07/24 01:11:44;;;;;;;;;;;;;;;23.29;49.82;101069.28;4978572;28;97722;-79
2021/07/24 01:14:10;;;;;;;;;;;;;;;23.35;49.74;101067.91;4986780;28;99360;-79
2021/07/24 01:16:38;;;;;;;;;;;;;;;23.28;50.04;101064.88;4985095;28;99302;-80
2021/07/24 01:19:04;;;;;;;;;;;;;;;23.27;49.70;101068.56;4977984;28;97040;-78
2021/07/24 01:21:32;;;;;;;;;;;;;;;23.09;50.11;101067.38;4987048;28;96844;-78
2021/07/24 01:23:59;;;;;;;;;;;;;;;23.23;49.83;101067.09;4978017;28;98802;-79
2021/07/24 01:26:25;;;;;;;;;;;;;;;23.20;49.08;101063.78;4979406;28;98777;-79
2021/07/24 01:28:52;;;;;;;;;;;;;;;23.18;49.56;101065.75;4986578;28;98662;-79
2021/07/24 01:31:18;;;;;;;;;;;;;;;23.14;49.43;101057.06;4984547;28;97580;-79
2021/07/24 01:33:44;;;;;;;;;;;;;;;23.20;49.20;101070.03;4978373;28;98148;-78
2021/07/24 01:36:11;;;;;;;;;;;;;;;23.15;49.50;101063.31;4973787;28;98950;-80
2021/07/24 01:38:39;;;;;;;;;;;;;;;23.09;49.57;101056.59;4975868;28;97098;-76
2021/07/24 01:41:05;;;;;;;;;;;;;;;23.12;49.57;101064.41;4980800;28;97180;-78
2021/07/24 01:43:31;;;;;;;;;;;;;;;23.07;49.49;101069.34;4981994;28;101810;-77
2021/07/24 01:45:58;;;;;;;;;;;;;;;23.09;49.41;101066.53;4982669;28;97705;-78
2021/07/24 01:48:33;;;;;;;;;;;;;;;23.05;49.50;101066.78;4995783;28;98204;-78
2021/07/24 01:53:47;;;;;;;;;;;;;;;23.19;48.81;101057.53;5020805;28;97842;-79
2021/07/24 01:56:15;;;;;;;;;;;;;;;23.23;48.78;101061.72;5017066;28;98243;-79
2021/07/24 01:58:42;;;;;;;;;;;;;;;23.22;48.73;101060.00;5015547;28;96844;-78
2021/07/24 02:01:08;;;;;;;;;;;;;;;23.30;48.94;101062.88;5018500;28;97301;-79
2021/07/24 02:03:37;;;;;;;;;;;;;;;23.31;49.08;101061.91;5023052;28;97741;-78
2021/07/24 02:06:04;;;;;;;;;;;;;;;23.30;49.03;101052.09;5026386;28;96833;-77
2021/07/24 02:08:32;;;;;;;;;;;;;;;23.35;49.06;101063.38;5023744;28;96922;-81
2021/07/24 02:11:03;;;;;;;;;;;;;;;23.30;49.08;101057.50;5017527;28;96995;-79
2021/07/24 02:13:30;;;;;;;;;;;;;;;23.28;49.33;101048.69;5020275;28;99643;-79
2021/07/24 02:15:57;;;;;;;;;;;;;;;23.22;49.57;101051.91;5018243;28;98731;-80
2021/07/24 02:18:24;;;;;;;;;;;;;;;23.21;49.67;101047.50;5027862;27;96848;-80
2021/07/24 02:20:52;;;;;;;;;;;;;;;23.15;49.88;101048.00;5031791;28;96768;-79
2021/07/24 02:23:22;;;;;;;;;;;;;;;23.20;49.88;101044.91;5036183;27;98248;-80
2021/07/24 02:25:48;;;;;;;;;;;;;;;23.14;49.73;101051.69;5021453;28;99957;-80
2021/07/24 02:28:16;;;;;;;;;;;;;;;23.14;49.89;101043.59;5032911;28;96834;-80
2021/07/24 02:30:42;;;;;;;;;;;;;;;23.32;49.37;101044.75;5023292;28;96770;-80
2021/07/24 02:33:09;;;;;;;;;;;;;;;23.16;49.57;101055.13;5019625;28;97981;-79
2021/07/24 02:35:35;;;;;;;;;;;;;;;23.09;49.49;101053.91;5025223;28;99255;-79
2021/07/24 02:38:01;;;;;;;;;;;;;;;23.15;49.81;101050.72;5032068;27;96832;-79
2021/07/24 02:40:28;;;;;;;;;;;;;;;23.11;49.76;101046.53;5026865;27;96946;-78
2021/07/24 02:42:54;;;;;;;;;;;;;;;23.10;49.59;101049.38;5035107;28;98916;-79
2021/07/24 02:45:22;;;;;;;;;;;;;;;23.13;49.36;101046.41;5030634;28;98008;-80
2021/07/24 02:47:49;;;;;;;;;;;;;;;23.23;49.16;101039.28;5025138;28;96980;-78
2021/07/24 02:50:15;;;;;;;;;;;;;;;23.20;49.45;101037.69;5022334;28;97160;-79
2021/07/24 02:52:41;;;;;;;;;;;;;;;23.16;49.53;101035.38;5025356;28;99890;-79
2021/07/24 02:55:08;;;;;;;;;;;;;;;23.21;49.43;101038.56;5024324;28;98860;-78
2021/07/24 02:57:35;;;;;;;;;;;;;;;23.26;49.29;101036.31;5025005;28;97023;-81
2021/07/24 03:00:02;;;;;;;;;;;;;;;23.19;49.44;101033.28;5020606;28;98563;-79
2021/07/24 03:02:30;;;;;;;;;;;;;;;23.22;49.48;101027.66;5026046;28;99270;-78
2021/07/24 03:04:56;;;;;;;;;;;;;;;23.15;49.58;101031.84;5030448;28;98114;-79
2021/07/24 03:07:22;;;;;;;;;;;;;;;23.10;49.78;101019.72;5024929;28;96773;-79
2021/07/24 03:09:49;;;;;;;;;;;;;;;23.22;49.49;101022.25;5023473;28;96991;-78
2021/07/24 03:12:17;;;;;;;;;;;;;;;23.30;49.27;101027.84;5024958;27;99080;-79
2021/07/24 03:14:43;;;;;;;;;;;;;;;23.31;49.20;101020.59;5031862;28;99216;-79
2021/07/24 03:17:09;;;;;;;;;;;;;;;23.38;49.26;101028.06;5022696;27;96855;-79
2021/07/24 03:19:37;;;;;;;;;;;;;;;23.50;49.26;101026.19;5018600;28;97241;-79
2021/07/24 03:22:03;;;;;;;;;;;;;;;23.39;49.24;101018.97;5023022;28;100842;-79
2021/07/24 03:24:31;;;;;;;;;;;;;;;23.41;49.35;101017.00;5023426;28;97506;-79
2021/07/24 03:26:58;;;;;;;;;;;;;;;23.48;49.60;101003.03;5017612;28;98596;-79
2021/07/24 03:29:24;;;;;;;;;;;;;;;23.57;49.13;101013.88;5029546;28;96803;-78
2021/07/24 03:31:50;;;;;;;;;;;;;;;23.40;49.65;101003.66;5023030;28;99113;-79
2021/07/24 03:34:17;;;;;;;;;;;;;;;23.50;49.36;101009.16;5028441;28;99291;-78
2021/07/24 03:36:45;;;;;;;;;;;;;;;23.49;48.97;101007.47;5030507;28;96833;-79
2021/07/24 03:39:11;;;;;;;;;;;;;;;23.53;48.88;101009.75;5034900;28;96841;-79
2021/07/24 03:41:37;;;;;;;;;;;;;;;23.59;49.04;101008.38;5023321;28;99298;-79
2021/07/24 03:44:05;;;;;;;;;;;;;;;23.59;49.04;101003.81;4999719;28;101699;-79
2021/07/24 03:46:31;;;;;;;;;;;;;;;23.56;49.03;101000.56;5034459;27;98453;-80
2021/07/24 03:48:57;;;;;;;;;;;;;;;23.64;49.02;100995.31;5022860;28;96946;-80
2021/07/24 03:51:23;;;;;;;;;;;;;;;23.73;48.60;100999.94;5020306;28;98830;-80
2021/07/24 03:53:51;;;;;;;;;;;;;;;23.69;48.63;101002.06;5018453;28;97694;-79
2021/07/24 03:56:18;;;;;;;;;;;;;;;23.79;48.31;101007.50;5024693;28;97044;-78
2021/07/24 03:58:46;;;;;;;;;;;;;;;23.76;48.85;101007.78;5020304;28;96881;-79
2021/07/24 04:01:12;;;;;;;;;;;;;;;23.74;48.94;101001.66;5033851;28;98460;-80
2021/07/24 04:03:38;;;;;;;;;;;;;;;23.82;48.82;101012.66;5023505;28;102104;-79
2021/07/24 04:06:05;;;;;;;;;;;;;;;23.90;48.39;101006.56;5031128;28;96873;-80
2021/07/24 04:08:33;;;;;;;;;;;;;;;23.93;48.19;101014.41;5025533;28;98932;-80
2021/07/24 04:11:04;;;;;;;;;;;;;;;23.91;48.20;101010.97;5027413;28;98889;-79
2021/07/24 04:13:31;;;;;;;;;;;;;;;23.94;47.38;101003.47;5025353;28;98839;-79
2021/07/24 04:15:58;;;;;;;;;;;;;;;24.13;47.14;101014.38;5024676;27;98642;-79
2021/07/24 04:18:26;;;;;;;;;;;;;;;24.27;46.90;101009.63;5040776;28;98264;-78
2021/07/24 04:20:52;;;;;;;;;;;;;;;24.30;45.99;101003.94;5035040;28;99454;-79
2021/07/24 04:23:18;;;;;;;;;;;;;;;24.37;46.36;101010.50;5038596;28;99225;-77
2021/07/24 04:25:44;;;;;;;;;;;;;;;24.45;46.01;101010.69;5038333;28;97044;-78
2021/07/24 04:28:12;;;;;;;;;;;;;;;24.59;45.68;101015.72;5027523;28;96862;-79
2021/07/24 04:30:38;;;;;;;;;;;;;;;24.63;45.71;101014.44;5022670;28;101010;-78
2021/07/24 04:33:05;;;;;;;;;;;;;;;24.72;45.63;101016.31;5001490;28;97612;-78
2021/07/24 04:35:31;;;;;;;;;;;;;;;24.71;45.35;101016.44;5023695;28;97221;-78
2021/07/24 04:37:57;;;;;;;;;;;;;;;24.72;45.93;101018.16;5022745;28;97316;-78
2021/07/24 04:40:23;;;;;;;;;;;;;;;24.79;45.21;101017.47;5025844;28;99934;-78
2021/07/24 04:42:50;;;;;;;;;;;;;;;24.94;45.40;101015.25;5027597;28;97726;-78
2021/07/24 04:45:19;;;;;;;;;;;;;;;24.93;44.23;101014.41;5031381;28;96883;-79
2021/07/24 04:47:45;;;;;;;;;;;;;;;25.01;43.80;101014.53;5023831;28;97023;-79
2021/07/24 04:50:13;;;;;;;;;;;;;;;25.12;44.16;101010.00;5026449;28;97823;-79
2021/07/24 04:52:40;;;;;;;;;;;;;;;25.14;43.78;101016.97;5006269;28;99164;-78
2021/07/24 04:55:10;;;;;;;;;;;;;;;25.17;43.43;101016.69;5031358;27;96866;-78
2021/07/24 04:57:36;;;;;;;;;;;;;;;25.16;43.45;101024.94;5018737;28;96849;-79
2021/07/24 05:00:03;;;;;;;;;;;;;;;25.17;43.84;101014.00;5020707;28;98462;-80
2021/07/24 05:02:32;;;;;;;;;;;;;;;25.38;42.87;101024.66;5028848;28;98897;-79
2021/07/24 05:04:59;;;;;;;;;;;;;;;25.01;43.72;101024.50;5018618;28;97136;-79
2021/07/24 05:07:27;;;;;;;;;;;;;;;25.22;43.46;101022.53;5033371;28;96814;-79
2021/07/24 05:09:53;;;;;;;;;;;;;;;25.52;42.63;101020.69;5036286;28;98984;-79
2021/07/24 05:12:20;;;;;;;;;;;;;;;25.70;41.98;101019.81;5026389;28;98781;-80
2021/07/24 05:14:46;;;;;;;;;;;;;;;25.82;42.24;101017.81;5023062;28;97737;-78
2021/07/24 05:17:13;;;;;;;;;;;;;;;26.13;40.90;101023.84;5023306;28;98756;-79
2021/07/24 05:19:42;;;;;;;;;;;;;;;27.14;38.97;101029.19;5000188;28;98520;-78
2021/07/24 05:22:09;;;;;;;;;;;;;;;27.05;38.57;101023.81;5017854;28;98666;-79
2021/07/24 05:24:39;;;;;;;;;;;;;;;26.87;39.05;101018.38;5020450;28;97157;-78
2021/07/24 05:27:06;;;;;;;;;;;;;;;26.79;39.23;101023.69;5025968;28;97402;-80
2021/07/24 05:29:33;;;;;;;;;;;;;;;26.63;39.37;101027.09;5021837;28;98940;-78
2021/07/24 05:31:59;;;;;;;;;;;;;;;26.67;39.14;101035.75;5030057;28;101254;-80
2021/07/24 05:34:25;;;;;;;;;;;;;;;26.75;39.14;101036.72;5022824;28;96864;-79
2021/07/24 05:36:53;;;;;;;;;;;;;;;26.68;39.19;101034.75;5025346;28;97612;-79
2021/07/24 05:39:22;;;;;;;;;;;;;;;26.71;39.09;101039.88;5019049;28;101379;-79
2021/07/24 05:41:48;;;;;;;;;;;;;;;26.76;39.14;101045.69;5024757;28;99419;-80
2021/07/24 05:44:20;;;;;;;;;;;;;;;26.79;39.45;101039.94;5022857;28;96629;-80
2021/07/24 05:46:46;;;;;;;;;;;;;;;26.81;38.80;101035.25;5037784;27;96941;-78
2021/07/24 05:49:13;;;;;;;;;;;;;;;26.93;38.72;101036.75;5029963;27;98896;-78
2021/07/24 05:51:39;;;;;;;;;;;;;;;26.89;39.00;101038.09;5028217;28;99120;-79
2021/07/24 05:54:07;;;;;;;;;;;;;;;27.07;38.59;101035.38;5020867;28;96860;-79
2021/07/24 05:56:34;;;;;;;;;;;;;;;27.08;38.71;101045.22;5031927;28;97432;-79
2021/07/24 05:59:00;;;;;;;;;;;;;;;27.09;38.41;101039.66;5026347;28;99292;-78
2021/07/24 06:01:30;;;;;;;;;;;;;;;26.88;39.16;101039.06;5030338;28;99182;-81
2021/07/24 06:03:56;;;;;;;;;;;;;;;27.05;38.95;101023.81;5031314;28;96833;-79
2021/07/24 06:06:22;;;;;;;;;;;;;;;27.06;39.13;101026.41;5029494;28;96918;-80
2021/07/24 06:08:49;;;;;;;;;;;;;;;27.21;38.88;101034.84;5027071;28;99763;-79
2021/07/24 06:11:16;;;;;;;;;;;;;;;27.31;38.24;101028.34;5032771;28;97889;-79
2021/07/24 06:13:42;;;;;;;;;;;;;;;27.52;38.09;101029.91;5045872;28;97711;-80
2021/07/24 06:16:09;;;;;;;;;;;;;;;27.75;37.76;101042.00;5035975;28;96991;-79
2021/07/24 06:21:17;;;;;;;;;;;;;;;28.05;36.87;101030.63;5023352;28;99663;-80
2021/07/24 06:23:44;;;;;;;;;;;;;;;28.74;35.92;101026.09;5026141;28;97196;-79
2021/07/24 06:26:10;;;;;;;;;;;;;;;28.85;35.62;101025.81;5025669;28;96996;-80
2021/07/24 06:28:39;;;;;;;;;;;;;;;28.74;35.60;101021.53;5045377;27;96908;-80
2021/07/24 06:31:08;;;;;;;;;;;;;;;28.35;36.33;101023.91;5044420;27;97888;-79
2021/07/24 06:33:34;;;;;;;;;;;;;;;28.24;36.85;101023.31;5037117;28;96901;-78
2021/07/24 06:36:00;;;;;;;;;;;;;;;28.68;36.73;101019.44;5034651;28;96685;-79
2021/07/24 06:38:27;;;;;;;;;;;;;;;28.69;36.06;101021.13;5046653;28;99425;-79
2021/07/24 06:40:53;;;;;;;;;;;;;;;28.50;36.94;101013.22;5040844;28;99032;-82
2021/07/24 06:43:20;;;;;;;;;;;;;;;28.55;36.60;101011.72;5048263;27;96987;-79
2021/07/24 06:45:48;;;;;;;;;;;;;;;28.67;36.07;101006.00;5039199;28;96524;-80
2021/07/24 06:48:14;;;;;;;;;;;;;;;28.76;35.34;101013.19;5049814;27;97050;-79
2021/07/24 06:50:41;;;;;;;;;;;;;;;28.08;36.76;101003.16;5041097;27;100888;-81
2021/07/24 06:53:07;;;;;;;;;;;;;;;28.57;35.88;101006.13;5048505;28;96756;-79
2021/07/24 06:55:34;;;;;;;;;;;;;;;28.89;35.80;101008.13;5030162;28;96636;-81
2021/07/24 06:58:02;;;;;;;;;;;;;;;29.64;34.37;100998.88;5043220;27;96886;-78
2021/07/24 07:00:29;;;;;;;;;;;;;;;29.79;33.51;100998.16;5041279;28;100357;-79
2021/07/24 07:02:59;;;;;;;;;;;;;;;29.73;33.74;101001.59;5037325;27;96480;-80
2021/07/24 07:05:27;;;;;;;;;;;;;;;29.76;33.65;100996.63;5037152;28;96935;-80
2021/07/24 07:07:53;;;;;;;;;;;;;;;29.46;33.95;100984.59;5030698;27;98045;-77
2021/07/24 07:10:22;;;;;;;;;;;;;;;29.58;34.24;100987.81;5044154;28;99524;-80
2021/07/24 07:12:49;;;;;;;;;;;;;;;29.68;33.91;100983.00;5038090;27;96861;-79
2021/07/24 07:15:15;;;;;;;;;;;;;;;29.73;33.54;100985.25;5030381;28;98502;-79
2021/07/24 07:17:41;;;;;;;;;;;;;;;30.13;33.49;100984.34;5030843;28;101040;-80
2021/07/24 07:20:10;;;;;;;;;;;;;;;30.55;32.72;100984.00;5022855;28;100542;-80
2021/07/24 07:22:37;;;;;;;;;;;;;;;30.14;32.97;100989.59;5029002;28;96840;-79
2021/07/24 07:25:03;;;;;;;;;;;;;;;30.28;33.22;100980.69;5028042;28;97146;-80
2021/07/24 07:27:31;;;;;;;;;;;;;;;30.18;32.89;100985.50;5027957;28;97827;-81
2021/07/24 07:29:58;;;;;;;;;;;;;;;30.22;32.54;100981.38;5023310;28;98767;-79
2021/07/24 07:32:25;;;;;;;;;;;;;;;30.02;33.34;100982.81;5021727;28;96847;-81
2021/07/24 07:34:53;;;;;;;;;;;;;;;30.46;32.13;100981.28;5020544;28;96757;-80
2021/07/24 07:37:21;;;;;;;;;;;;;;;30.16;32.56;100971.19;5024936;28;101970;-80
2021/07/24 07:39:50;;;;;;;;;;;;;;;30.15;32.19;100974.09;5021290;28;99377;-81
2021/07/24 07:42:16;;;;;;;;;;;;;;;30.38;32.24;100973.16;5027359;28;96870;-80
2021/07/24 07:44:43;;;;;;;;;;;;;;;30.67;31.73;100975.25;5031533;28;96896;-80
2021/07/24 07:47:09;;;;;;;;;;;;;;;30.42;32.22;100969.03;5029915;28;99603;-80
2021/07/24 07:49:45;;;;;;;;;;;;;;;30.49;32.29;100964.59;5031694;28;99250;-80
2021/07/24 07:52:11;;;;;;;;;;;;;;;30.56;32.07;100966.63;5028019;28;96923;-80
2021/07/24 07:54:40;;;;;;;;;;;;;;;30.87;31.48;100965.56;5025056;28;97379;-80
2021/07/24 07:57:07;;;;;;;;;;;;;;;30.57;31.74;100962.88;5029030;28;100122;-81
2021/07/24 07:59:33;;;;;;;;;;;;;;;30.61;31.38;100964.19;5023704;28;98064;-80
2021/07/24 08:02:00;;;;;;;;;;;;;;;30.96;31.05;100963.63;5030152;28;97648;-79
2021/07/24 08:04:26;;;;;;;;;;;;;;;31.08;30.85;100959.50;5004299;28;97211;-81
2021/07/24 08:06:53;;;;;;;;;;;;;;;31.26;30.84;100956.44;5020642;28;97746;-80
2021/07/24 08:09:20;;;;;;;;;;;;;;;30.78;31.66;100950.31;5020404;27;98675;-82
2021/07/24 08:11:50;;;;;;;;;;;;;;;30.58;31.46;100956.38;5017338;27;97228;-82
2021/07/24 08:14:16;;;;;;;;;;;;;;;30.46;31.45;100948.56;5027292;28;97163;-81
2021/07/24 08:16:43;;;;;;;;;;;;;;;30.80;31.23;100941.91;5024884;28;97829;-81
2021/07/24 08:19:10;;;;;;;;;;;;;;;31.16;30.59;100934.88;5030151;28;98539;-80
2021/07/24 08:21:36;;;;;;;;;;;;;;;31.39;30.59;100931.25;5026296;27;96844;-80
2021/07/24 08:24:04;;;;;;;;;;;;;;;31.60;29.39;100935.00;5023741;28;98943;-80
2021/07/24 08:26:31;;;;;;;;;;;;;;;31.23;30.22;100943.16;5027888;28;98804;-80
2021/07/24 08:28:58;;;;;;;;;;;;;;;31.30;30.29;100941.41;5036540;28;98813;-81
2021/07/24 08:31:28;;;;;;;;;;;;;;;31.40;29.68;100938.41;5024808;28;96877;-82
2021/07/24 08:33:57;;;;;;;;;;;;;;;31.68;29.64;100936.78;5027971;28;96989;-84
2021/07/24 08:36:24;;;;;;;;;;;;;;;30.91;30.48;100927.88;5023141;28;100923;-80
2021/07/24 08:38:53;;;;;;;;;;;;;;;31.38;30.14;100935.00;5029429;28;101336;-79
2021/07/24 08:41:19;;;;;;;;;;;;;;;31.74;29.55;100936.03;5023787;28;97393;-80
2021/07/24 08:43:46;;;;;;;;;;;;;;;31.75;29.61;100937.75;5022316;28;97536;-80
2021/07/24 08:46:19;;;;;;;;;;;;;;;31.86;29.56;100931.81;5023833;28;100386;-80
2021/07/24 08:48:46;;;;;;;;;;;;;;;31.81;29.57;100931.53;5030485;27;99075;-81
2021/07/24 08:51:15;;;;;;;;;;;;;;;31.97;29.03;100931.31;5026122;28;97032;-82
2021/07/24 08:53:45;;;;;;;;;;;;;;;32.26;28.53;100924.19;5034481;28;96709;-78
2021/07/24 08:56:22;;;;;;;;;;;;;;;31.80;28.66;100928.97;5030194;28;116977;-81
2021/07/24 08:58:59;;;;;;;;;;;;;;;32.09;28.67;100926.25;5033841;28;98574;-78
2021/07/24 09:01:31;;;;;;;;;;;;;;;32.35;28.99;100923.03;5018128;28;97135;-79
2021/07/24 09:04:03;;;;;;;;;;;;;;;31.33;29.85;100921.06;5025770;28;96843;-80
2021/07/24 09:06:31;;;;;;;;;;;;;;;31.58;29.81;100911.59;5021119;28;101185;-82
2021/07/24 09:08:59;;;;;;;;;;;;;;;31.43;29.39;100914.31;5027662;28;98257;-82
2021/07/24 09:11:27;;;;;;;;;;;;;;;32.02;28.88;100915.22;5029037;28;96942;-82
2021/07/24 09:14:05;;;;;;;;;;;;;;;32.03;28.45;100911.44;5032807;22;96936;-83
2021/07/24 09:16:33;;;;;;;;;;;;;;;32.17;27.64;100914.38;5050258;27;99348;-82
2021/07/24 09:19:00;;;;;;;;;;;;;;;32.23;27.12;100914.47;5038860;28;99903;-83
2021/07/24 09:21:27;;;;;;;;;;;;;;;32.09;27.50;100907.13;5053662;28;96449;-82
2021/07/24 09:23:53;;;;;;;;;;;;;;;32.37;27.22;100907.28;5046805;27;96498;-84
2021/07/24 09:26:36;;;;;;;;;;;;;;;31.75;28.19;100904.13;5038434;28;100302;-82
2021/07/24 09:29:12;;;;;;;;;;;;;;;30.71;29.91;100881.13;5033264;28;97203;-86
2021/07/24 09:31:52;;;;;;;;;;;;;;;30.66;29.78;100893.59;5034128;28;98507;-86
2021/07/24 09:34:19;;;;;;;;;;;;;;;31.04;28.73;100900.81;5044522;28;97048;-86
2021/07/24 09:36:47;;;;;;;;;;;;;;;31.46;28.67;100905.75;5029330;28;98919;-86
2021/07/24 09:39:15;;;;;;;;;;;;;;;32.04;27.58;100890.41;5037563;28;100276;-86
2021/07/24 09:41:42;;;;;;;;;;;;;;;31.95;26.36;100878.75;5034201;28;96833;-86
2021/07/24 09:44:08;;;;;;;;;;;;;;;31.97;27.33;100887.59;5036016;28;97512;-84
2021/07/24 09:46:35;;;;;;;;;;;;;;;31.66;27.62;100889.69;5033817;28;97751;-84
2021/07/24 09:49:13;;;;;;;;;;;;;;;32.24;27.05;100887.97;5020379;28;100822;-83
2021/07/24 09:51:41;;;;;;;;;;;;;;;31.95;27.00;100878.75;5024839;28;96834;-84
2021/07/24 09:54:22;;;;;;;;;;;;;;;31.79;27.41;100884.41;5038608;28;96663;-83
2021/07/24 09:56:51;;;;;;;;;;;;;;;32.30;26.86;100876.25;5033031;28;99206;-84
2021/07/24 09:59:31;;;;;;;;;;;;;;;32.18;27.72;100867.72;5034581;28;100734;-82
2021/07/24 10:01:59;;;;;;;;;;;;;;;30.83;28.52;100879.69;5026741;28;98557;-82
2021/07/24 10:04:28;;;;;;;;;;;;;;;31.27;27.77;100876.25;5035815;28;96963;-82
2021/07/24 10:07:00;;;;;;;;;;;;;;;30.99;28.10;100880.56;5032098;28;98470;-82
2021/07/24 10:09:28;;;;;;;;;;;;;;;31.58;27.00;100893.31;5040344;28;100376;-83
2021/07/24 10:11:56;;;;;;;;;;;;;;;32.11;27.17;100887.78;5027871;28;96756;-83
2021/07/24 10:14:23;;;;;;;;;;;;;;;32.21;26.37;100885.63;5023381;28;97054;-81
2021/07/24 10:16:50;;;;;;;;;;;;;;;32.25;26.64;100889.66;5036563;28;100432;-82
2021/07/24 10:19:17;;;;;;;;;;;;;;;31.18;27.80;100880.91;5017378;28;97692;-82
2021/07/24 10:21:45;;;;;;;;;;;;;;;31.62;27.77;100882.91;5037380;28;97426;-82
2021/07/24 10:24:11;;;;;;;;;;;;;;;32.01;26.45;100886.19;5041517;28;96704;-80
2021/07/24 10:26:39;;;;;;;;;;;;;;;32.03;26.72;100881.38;5053602;28;98023;-82
2021/07/24 10:29:07;;;;;;;;;;;;;;;31.36;26.77;100885.22;5043230;28;100094;-83
2021/07/24 10:31:37;;;;;;;;;;;;;;;31.52;27.57;100883.16;5049116;28;96667;-80
2021/07/24 10:34:07;;;;;;;;;;;;;;;31.38;27.79;100881.25;5059521;28;96701;-81
2021/07/24 10:36:35;;;;;;;;;;;;;;;31.58;26.80;100887.84;5054509;28;99881;-80
2021/07/24 10:39:04;;;;;;;;;;;;;;;31.48;27.39;100881.84;5052311;28;96530;-82
2021/07/24 10:41:38;;;;;;;;;;;;;;;31.90;27.28;100880.38;5060030;28;95885;-81
2021/07/24 10:44:07;;;;;;;;;;;;;;;32.15;26.80;100879.06;5045751;28;96564;-80
2021/07/24 10:46:53;;;;;;;;;;;;;;;31.85;27.59;100874.59;5057927;28;98195;-82
2021/07/24 10:49:35;;;;;;;;;;;;;;;31.87;27.03;100867.06;5044499;28;100468;-82
2021/07/24 10:52:02;;;;;;;;;;;;;;;31.43;27.75;100861.59;5058560;28;96844;-80
2021/07/24 10:54:32;;;;;;;;;;;;;;;32.14;27.03;100855.47;5055024;28;96800;-82
2021/07/24 10:56:59;;;;;;;;;;;;;;;32.94;25.83;100857.19;5057547;27;98198;-81
2021/07/24 10:59:25;;;;;;;;;;;;;;;31.77;26.98;100856.41;5045243;28;99415;-81
2021/07/24 11:01:52;;;;;;;;;;;;;;;31.52;27.55;100849.53;5043128;28;96686;-80
2021/07/24 11:04:37;;;;;;;;;;;;;;;32.49;26.90;100848.31;5053797;28;96845;-79
2021/07/24 11:07:24;;;;;;;;;;;;;;;32.66;26.54;100852.47;5050799;27;98938;-80
2021/07/24 11:10:06;;;;;;;;;;;;;;;32.71;26.02;100847.28;5059273;27;97604;-81
2021/07/24 11:12:36;;;;;;;;;;;;;;;32.89;26.50;100840.50;5046593;27;96827;-85
2021/07/24 11:15:04;;;;;;;;;;;;;;;33.23;25.80;100838.72;5057248;27;97750;-85
2021/07/24 11:20:29;;;;;;;;;;;;;;;33.16;25.93;100832.31;5053468;27;99078;-85
2021/07/24 11:23:09;;;;;;;;;;;;;;;33.38;25.62;100844.09;5058114;27;98006;-86
2021/07/24 11:25:42;;;;;;;;;;;;;;;33.08;25.10;100832.44;5056484;27;96069;-86
2021/07/24 11:28:18;;;;;;;;;;;;;;;32.96;26.19;100827.72;5056328;28;99054;-85
2021/07/24 11:30:45;;;;;;;;;;;;;;;32.62;26.07;100823.84;5052920;28;99874;-84
2021/07/24 11:33:17;;;;;;;;;;;;;;;32.69;25.90;100830.22;5049912;27;97327;-82
2021/07/24 11:35:44;;;;;;;;;;;;;;;32.81;26.16;100828.69;5043300;28;96833;-82
2021/07/24 11:38:20;;;;;;;;;;;;;;;32.74;26.28;100825.03;5050970;28;98817;-81
2021/07/24 11:40:59;;;;;;;;;;;;;;;32.75;26.28;100824.00;5049616;28;97759;-81
2021/07/24 11:43:26;;;;;;;;;;;;;;;32.71;26.53;100822.66;5041361;28;97029;-83
2021/07/24 11:45:58;;;;;;;;;;;;;;;32.30;26.77;100824.31;5053473;28;95993;-83
2021/07/24 11:48:26;;;;;;;;;;;;;;;33.01;26.34;100814.31;5054969;28;99385;-83
2021/07/24 11:51:00;;;;;;;;;;;;;;;33.24;26.02;100825.88;5051234;27;98700;-82
2021/07/24 11:53:26;;;;;;;;;;;;;;;33.33;25.43;100827.41;5047717;28;96662;-81
2021/07/24 11:55:52;;;;;;;;;;;;;;;34.07;25.01;100821.31;5047941;28;96901;-84
2021/07/24 11:58:21;;;;;;;;;;;;;;;33.68;24.93;100828.25;5039200;28;98084;-85
2021/07/24 12:00:50;;;;;;;;;;;;;;;33.50;25.63;100815.09;5039760;28;97664;-84
2021/07/24 12:03:19;;;;;;;;;;;;;;;32.51;26.77;100823.47;5032174;28;96721;-83
2021/07/24 12:05:47;;;;;;;;;;;;;;;32.71;26.39;100814.47;5045804;28;96769;-89
2021/07/24 12:08:14;;;;;;;;;;;;;;;32.35;27.03;100819.97;5048135;28;100096;-87
2021/07/24 12:10:49;;;;;;;;;;;;;;;32.58;26.77;100819.78;5043496;28;100093;-91
2021/07/24 12:13:31;;;;;;;;;;;;;;;32.71;26.45;100809.00;5025407;28;96651;-89
2021/07/24 12:16:05;;;;;;;;;;;;;;;33.32;25.39;100816.66;5034986;28;96740;-88
2021/07/24 12:18:36;;;;;;;;;;;;;;;33.77;24.78;100816.09;5038820;28;100436;-86
2021/07/24 12:21:13;;;;;;;;;;;;;;;34.22;23.87;100800.06;5053902;28;99423;-86
2021/07/24 12:23:44;;;;;;;;;;;;;;;34.16;24.58;100806.34;5029637;28;96679;-87
2021/07/24 12:26:12;;;;;;;;;;;;;;;33.98;24.66;100805.03;5034619;28;96597;-87
2021/07/24 12:31:30;;;;;;;;;;;;;;;34.52;23.50;100795.06;5037614;28;96769;-82
2021/07/24 12:33:57;;;;;;;;;;;;;;;34.84;23.00;100791.53;5038062;28;97183;-83
2021/07/24 12:36:24;;;;;;;;;;;;;;;34.86;22.83;100794.03;5038841;28;96795;-82
2021/07/24 12:38:51;;;;;;;;;;;;;;;34.96;22.86;100792.56;5039812;28;99442;-82
2021/07/24 12:41:18;;;;;;;;;;;;;;;34.93;22.81;100790.22;5040640;28;101137;-81
2021/07/24 12:44:03;;;;;;;;;;;;;;;34.29;23.82;100788.06;5042009;28;96598;-81
2021/07/24 12:46:31;;;;;;;;;;;;;;;34.36;23.63;100783.44;5043841;28;96842;-80
2021/07/24 12:48:58;;;;;;;;;;;;;;;34.38;23.43;100784.06;5045045;28;99361;-79
2021/07/24 12:51:30;;;;;;;;;;;;;;;33.68;24.37;100780.81;5047928;28;99211;-80